createdAt,value
2022-11-24T00:01:17.884Z,14.82
2022-11-24T00:03:47.816Z,12.37
2022-11-24T00:06:16.803Z,11.82
2022-11-24T00:08:46.206Z,10.90
2022-11-24T00:11:17.033Z,9.95
2022-11-24T00:13:45.584Z,11.45
2022-11-24T00:16:25.925Z,9.32
2022-11-24T00:18:56.493Z,9.18
2022-11-24T00:21:26.423Z,9.77
2022-11-24T00:23:54.826Z,9.35
2022-11-24T00:26:28.854Z,10.73
2022-11-24T00:28:59.810Z,9.52
2022-11-24T00:31:35.200Z,9.13
2022-11-24T00:34:06.732Z,9.05
2022-11-24T00:36:36.160Z,9.40
2022-11-24T00:39:17.601Z,10.40
2022-11-24T00:41:45.943Z,11.07
2022-11-24T00:44:14.019Z,9.40
2022-11-24T00:46:42.448Z,11.65
2022-11-24T00:49:10.921Z,11.80
2022-11-24T00:51:38.969Z,13.18
2022-11-24T00:54:07.578Z,13.70
2022-11-24T00:56:35.579Z,15.98
2022-11-24T00:59:04.275Z,16.10
2022-11-24T01:01:32.903Z,15.65
2022-11-24T01:04:02.282Z,12.40
2022-11-24T01:06:30.442Z,10.73
2022-11-24T01:08:58.972Z,12.18
2022-11-24T01:11:50.387Z,14.05
2022-11-24T01:14:19.693Z,14.43
2022-11-24T01:16:48.179Z,16.88
2022-11-24T01:19:16.420Z,13.25
2022-11-24T01:21:44.776Z,15.98
2022-11-24T01:24:14.159Z,14.57
2022-11-24T01:26:42.918Z,15.15
2022-11-24T01:29:12.777Z,15.63
2022-11-24T01:31:40.973Z,13.40
2022-11-24T01:34:08.948Z,12.02
2022-11-24T01:36:38.125Z,12.88
2022-11-24T01:39:06.963Z,8.18
2022-11-24T01:41:35.935Z,9.70
2022-11-24T01:44:25.443Z,9.30
2022-11-24T01:47:18.580Z,8.63
2022-11-24T01:49:51.668Z,8.70
2022-11-24T01:52:42.958Z,9.27
2022-11-24T01:55:16.229Z,8.23
2022-11-24T02:00:19.287Z,8.73
2022-11-24T02:02:47.431Z,8.15
2022-11-24T02:05:33.449Z,6.82
2022-11-24T02:08:03.281Z,7.35
2022-11-24T02:10:31.350Z,7.38
2022-11-24T02:13:00.729Z,9.95
2022-11-24T02:15:29.821Z,8.38
2022-11-24T02:17:59.906Z,9.10
2022-11-24T02:20:27.908Z,9.32
2022-11-24T02:23:20.377Z,8.98
2022-11-24T02:25:55.493Z,11.70
2022-11-24T02:28:26.623Z,12.73
2022-11-24T02:30:54.804Z,12.60
2022-11-24T02:33:25.569Z,10.77
2022-11-24T02:35:53.752Z,10.60
2022-11-24T02:38:36.130Z,7.40
2022-11-24T02:41:08.534Z,9.48
2022-11-24T02:43:42.830Z,8.50
2022-11-24T02:46:10.995Z,8.93
2022-11-24T02:48:39.853Z,7.65
2022-11-24T02:51:07.999Z,8.00
2022-11-24T02:53:36.470Z,8.10
2022-11-24T02:56:05.874Z,8.40
2022-11-24T02:58:33.992Z,8.48
2022-11-24T03:01:01.895Z,8.80
2022-11-24T03:03:30.908Z,9.88
2022-11-24T03:05:59.237Z,9.27
2022-11-24T03:08:27.730Z,9.40
2022-11-24T03:10:56.140Z,8.73
2022-11-24T03:13:24.213Z,11.15
2022-11-24T03:16:10.630Z,11.55
2022-11-24T03:18:39.564Z,12.25
2022-11-24T03:21:08.042Z,13.50
2022-11-24T03:23:35.992Z,12.63
2022-11-24T03:26:12.233Z,13.30
2022-11-24T03:28:41.850Z,10.55
2022-11-24T03:31:12.207Z,11.90
2022-11-24T03:33:40.866Z,8.63
2022-11-24T03:36:09.368Z,9.05
2022-11-24T03:38:37.317Z,10.05
2022-11-24T03:41:05.618Z,7.75
2022-11-24T03:43:35.880Z,7.03
2022-11-24T03:46:06.099Z,7.90
2022-11-24T03:48:34.881Z,8.25
2022-11-24T03:51:03.973Z,7.10
2022-11-24T03:53:33.799Z,6.45
2022-11-24T03:56:02.960Z,6.18
2022-11-24T03:58:31.343Z,7.57
2022-11-24T04:01:00.091Z,7.47
2022-11-24T04:03:28.602Z,7.13
2022-11-24T04:05:56.800Z,10.23
2022-11-24T04:08:25.206Z,10.68
2022-11-24T04:10:54.742Z,9.95
2022-11-24T04:13:24.659Z,7.20
2022-11-24T04:15:53.743Z,4.97
2022-11-24T04:18:22.852Z,5.00
2022-11-24T04:20:52.176Z,5.13
2022-11-24T04:23:20.509Z,4.95
2022-11-24T04:25:48.915Z,4.75
2022-11-24T04:28:17.244Z,4.63
2022-11-24T04:30:45.388Z,4.97
2022-11-24T04:33:14.072Z,5.00
2022-11-24T04:35:42.009Z,4.13
2022-11-24T04:38:10.122Z,4.38
2022-11-24T04:40:38.532Z,4.88
2022-11-24T04:43:06.527Z,5.03
2022-11-24T04:45:35.111Z,4.70
2022-11-24T04:48:03.554Z,5.53
2022-11-24T04:50:31.492Z,5.88
2022-11-24T04:52:59.791Z,5.03
2022-11-24T04:55:27.668Z,4.55
2022-11-24T04:57:55.756Z,4.65
2022-11-24T05:00:23.778Z,4.35
2022-11-24T05:02:52.284Z,4.72
2022-11-24T05:05:20.284Z,4.88
2022-11-24T05:07:48.698Z,5.18
2022-11-24T05:10:35.237Z,5.32
2022-11-24T05:13:06.584Z,6.28
2022-11-24T05:15:34.648Z,5.72
2022-11-24T05:18:06.653Z,6.43
2022-11-24T05:20:34.946Z,6.88
2022-11-24T05:23:08.120Z,9.40
2022-11-24T05:25:37.284Z,9.20
2022-11-24T05:28:11.163Z,11.23
2022-11-24T05:30:39.878Z,10.40
2022-11-24T05:33:12.439Z,8.88
2022-11-24T05:35:40.535Z,9.30
2022-11-24T05:38:08.790Z,8.13
2022-11-24T05:40:37.680Z,7.82
2022-11-24T05:43:05.751Z,7.50
2022-11-24T05:45:34.450Z,7.68
2022-11-24T05:48:11.040Z,8.00
2022-11-24T05:50:39.170Z,8.40
2022-11-24T05:53:11.459Z,9.68
2022-11-24T05:55:40.927Z,8.35
2022-11-24T05:58:10.417Z,7.30
2022-11-24T06:00:38.483Z,6.55
2022-11-24T06:03:06.676Z,8.13
2022-11-24T06:05:35.123Z,7.38
2022-11-24T06:08:03.157Z,6.90
2022-11-24T06:10:31.451Z,6.90
2022-11-24T06:12:59.395Z,6.72
2022-11-24T06:15:27.849Z,6.85
2022-11-24T06:17:56.522Z,6.38
2022-11-24T06:20:29.780Z,6.30
2022-11-24T06:23:01.230Z,5.60
2022-11-24T06:25:30.470Z,6.78
2022-11-24T06:27:58.854Z,8.50
2022-11-24T06:30:26.803Z,7.07
2022-11-24T06:32:55.998Z,7.25
2022-11-24T06:35:24.194Z,7.70
2022-11-24T06:37:52.093Z,6.88
2022-11-24T06:40:20.008Z,6.65
2022-11-24T06:42:52.421Z,6.00
2022-11-24T06:45:20.680Z,7.85
2022-11-24T06:47:48.695Z,7.85
2022-11-24T06:50:16.740Z,7.00
2022-11-24T06:52:44.712Z,7.38
2022-11-24T06:55:12.593Z,7.78
2022-11-24T06:57:41.161Z,8.15
2022-11-24T07:00:09.689Z,12.35
2022-11-24T07:02:42.507Z,13.57
2022-11-24T07:05:13.726Z,6.78
2022-11-24T07:07:42.232Z,7.03
2022-11-24T07:10:10.707Z,6.53
2022-11-24T07:12:38.610Z,5.47
2022-11-24T07:15:07.285Z,5.55
2022-11-24T07:17:39.815Z,6.03
2022-11-24T07:20:09.384Z,5.18
2022-11-24T07:22:37.685Z,5.53
2022-11-24T07:25:07.743Z,6.15
2022-11-24T07:27:36.113Z,6.78
2022-11-24T07:30:04.576Z,5.00
2022-11-24T07:32:33.156Z,6.25
2022-11-24T07:35:01.163Z,9.35
2022-11-24T07:37:32.032Z,8.73
2022-11-24T07:40:00.831Z,7.78
2022-11-24T07:42:29.170Z,9.35
2022-11-24T07:44:57.107Z,8.77
2022-11-24T07:47:25.114Z,8.82
2022-11-24T07:49:53.504Z,11.23
2022-11-24T07:52:21.525Z,11.18
2022-11-24T07:54:49.965Z,9.55
2022-11-24T07:57:17.922Z,5.72
2022-11-24T07:59:46.052Z,6.28
2022-11-24T08:02:14.713Z,7.40
2022-11-24T08:04:42.783Z,6.40
2022-11-24T08:07:11.183Z,6.85
2022-11-24T08:09:40.001Z,6.63
2022-11-24T08:12:08.091Z,6.50
2022-11-24T08:14:36.547Z,6.30
2022-11-24T08:17:04.739Z,6.32
2022-11-24T08:19:33.219Z,7.32
2022-11-24T08:22:01.341Z,7.95
2022-11-24T08:24:29.374Z,8.05
2022-11-24T08:26:57.758Z,7.57
2022-11-24T08:29:32.009Z,7.00
2022-11-24T08:32:00.556Z,7.05
2022-11-24T08:34:28.614Z,8.25
2022-11-24T08:36:56.754Z,8.57
2022-11-24T08:39:25.272Z,9.05
2022-11-24T08:41:53.639Z,8.73
2022-11-24T08:44:22.347Z,7.05
2022-11-24T08:46:50.536Z,6.68
2022-11-24T08:49:43.346Z,7.50
2022-11-24T08:52:11.977Z,5.93
2022-11-24T08:54:41.058Z,5.25
2022-11-24T08:57:09.165Z,4.68
2022-11-24T08:59:37.759Z,4.15
2022-11-24T09:02:06.349Z,4.88
2022-11-24T09:04:34.883Z,4.85
2022-11-24T09:07:03.080Z,4.32
2022-11-24T09:09:31.765Z,4.93
2022-11-24T09:12:00.714Z,5.05
2022-11-24T09:14:29.461Z,4.15
2022-11-24T09:16:57.670Z,3.50
2022-11-24T09:19:25.840Z,3.85
2022-11-24T09:21:53.925Z,4.55
2022-11-24T09:24:23.028Z,4.53
2022-11-24T09:26:51.131Z,4.53
2022-11-24T09:29:19.140Z,4.47
2022-11-24T09:31:47.144Z,3.75
2022-11-24T09:34:16.621Z,3.70
2022-11-24T09:36:45.072Z,4.13
2022-11-24T09:39:13.778Z,3.50
2022-11-24T09:42:18.517Z,3.10
2022-11-24T09:45:12.676Z,3.30
2022-11-24T09:48:15.059Z,3.00
2022-11-24T09:50:46.897Z,3.00
2022-11-24T09:53:38.212Z,4.80
2022-11-24T09:56:23.560Z,2.92
2022-11-24T09:59:00.687Z,2.88
2022-11-24T10:01:37.768Z,2.65
2022-11-24T10:04:22.041Z,3.78
2022-11-24T10:07:04.675Z,3.15
2022-11-24T10:10:09.655Z,2.55
2022-11-24T10:12:46.881Z,2.58
2022-11-24T10:15:29.775Z,2.90
2022-11-24T10:18:09.396Z,3.22
2022-11-24T10:20:59.487Z,3.22
2022-11-24T10:23:49.371Z,19.33
2022-11-24T10:26:26.538Z,39.53
2022-11-24T10:28:56.399Z,3.88
2022-11-24T10:31:36.874Z,5.05
2022-11-24T10:34:17.027Z,4.78
2022-11-24T10:36:56.659Z,17.27
2022-11-24T10:39:30.401Z,15.73
2022-11-24T10:42:12.522Z,6.18
2022-11-24T10:44:43.186Z,3.55
2022-11-24T10:47:23.012Z,3.95
2022-11-24T10:50:03.179Z,4.40
2022-11-24T10:52:44.956Z,5.28
2022-11-24T10:55:13.066Z,4.60
2022-11-24T10:57:41.495Z,4.93
2022-11-24T11:00:34.417Z,3.83
2022-11-24T11:03:21.717Z,3.75
2022-11-24T11:06:13.720Z,3.40
2022-11-24T11:08:41.918Z,4.15
2022-11-24T11:11:28.122Z,4.00
2022-11-24T11:14:03.531Z,4.00
2022-11-24T11:16:40.594Z,3.33
2022-11-24T11:19:55.478Z,3.63
2022-11-24T11:22:29.390Z,3.08
2022-11-24T11:25:15.417Z,3.63
2022-11-24T11:27:43.530Z,3.75
2022-11-24T11:36:14.825Z,4.10
2022-11-24T11:38:44.645Z,5.15
2022-11-24T11:41:20.203Z,3.60
2022-11-24T11:43:56.462Z,4.05
2022-11-24T11:46:26.247Z,3.70
2022-11-24T11:48:54.580Z,4.28
2022-11-24T11:51:42.481Z,3.88
2022-11-24T11:54:25.740Z,4.18
2022-11-24T11:57:30.255Z,5.18
2022-11-24T12:00:17.820Z,4.55
2022-11-24T12:02:53.117Z,4.70
2022-11-24T12:05:24.467Z,4.60
2022-11-24T12:08:09.757Z,4.22
2022-11-24T12:10:46.327Z,4.35
2022-11-24T12:13:36.659Z,4.32
2022-11-24T12:16:20.321Z,4.63
2022-11-24T12:19:05.064Z,5.35
2022-11-24T12:21:42.810Z,5.60
2022-11-24T12:24:17.186Z,4.72
2022-11-24T12:26:57.734Z,5.40
2022-11-24T12:30:01.149Z,4.72
2022-11-24T12:32:50.820Z,4.55
2022-11-24T12:35:40.154Z,4.65
2022-11-24T12:38:39.095Z,4.68
2022-11-24T12:41:42.435Z,4.82
2022-11-24T12:44:31.038Z,4.78
2022-11-24T12:47:24.225Z,4.25
2022-11-24T12:50:19.450Z,4.32
2022-11-24T12:52:57.136Z,4.28
2022-11-24T12:55:28.933Z,4.50
2022-11-24T12:58:10.587Z,4.57
2022-11-24T13:01:02.991Z,5.32
2022-11-24T13:04:05.112Z,4.47
2022-11-24T13:06:54.082Z,4.78
2022-11-24T13:09:22.215Z,4.22
2022-11-24T13:11:52.658Z,4.50
2022-11-24T13:14:33.768Z,4.78
2022-11-24T13:19:53.115Z,5.85
2022-11-24T13:22:26.209Z,5.85
2022-11-24T13:25:39.759Z,5.20
2022-11-24T13:29:03.235Z,5.47
2022-11-24T13:31:34.138Z,5.22
2022-11-24T13:34:43.179Z,6.32
2022-11-24T13:37:31.941Z,5.38
2022-11-24T13:40:13.340Z,5.63
2022-11-24T13:42:57.624Z,4.68
2022-11-24T13:45:41.226Z,4.93
2022-11-24T13:48:22.005Z,5.53
2022-11-24T13:50:54.426Z,5.32
2022-11-24T13:53:47.791Z,5.28
2022-11-24T13:56:15.955Z,5.18
2022-11-24T13:58:49.715Z,6.15
2022-11-24T14:01:28.930Z,4.50
2022-11-24T14:04:31.134Z,6.47
2022-11-24T14:07:09.141Z,5.03
2022-11-24T14:09:41.981Z,5.18
2022-11-24T14:12:20.593Z,5.53
2022-11-24T14:14:50.520Z,5.43
2022-11-24T14:17:24.584Z,4.38
2022-11-24T14:19:55.488Z,4.40
2022-11-24T14:22:33.872Z,4.93
2022-11-24T14:25:03.745Z,8.35
2022-11-24T14:27:40.276Z,6.30
2022-11-24T14:30:13.517Z,14.15
2022-11-24T14:32:52.950Z,7.75
2022-11-24T14:35:25.350Z,5.55
2022-11-24T14:37:55.446Z,4.80
2022-11-24T14:40:57.308Z,4.18
2022-11-24T14:43:34.692Z,5.25
2022-11-24T14:46:14.526Z,3.70
2022-11-24T14:48:50.620Z,7.18
2022-11-24T14:51:25.817Z,6.43
2022-11-24T14:54:03.540Z,5.70
2022-11-24T14:56:39.894Z,8.30
2022-11-24T14:59:36.538Z,8.13
2022-11-24T15:02:48.031Z,11.13
2022-11-24T15:05:17.135Z,15.43
2022-11-24T15:07:47.395Z,15.00
2022-11-24T15:10:33.395Z,16.30
2022-11-24T15:13:05.468Z,16.20
2022-11-24T15:15:39.323Z,16.00
2022-11-24T15:18:24.371Z,15.32
2022-11-24T15:20:53.013Z,15.93
2022-11-24T15:23:26.503Z,14.13
2022-11-24T15:26:03.986Z,15.40
2022-11-24T15:28:32.927Z,15.25
2022-11-24T15:31:02.186Z,20.05
2022-11-24T15:33:31.342Z,16.83
2022-11-24T15:35:59.772Z,18.90
2022-11-24T15:38:27.959Z,21.77
2022-11-24T15:41:00.235Z,16.05
2022-11-24T15:43:33.142Z,17.40
2022-11-24T15:46:02.315Z,16.27
2022-11-24T15:48:31.987Z,15.90
2022-11-24T15:51:03.433Z,16.50
2022-11-24T15:53:39.238Z,20.17
2022-11-24T15:56:12.642Z,21.88
2022-11-24T15:58:40.880Z,20.17
2022-11-24T16:01:09.447Z,19.90
2022-11-24T16:03:52.713Z,19.60
2022-11-24T16:06:25.469Z,20.40
2022-11-24T16:08:54.710Z,20.48
2022-11-24T16:11:23.311Z,19.13
2022-11-24T16:13:53.716Z,20.13
2022-11-24T16:16:23.608Z,20.10
2022-11-24T16:18:52.224Z,25.00
2022-11-24T16:21:20.301Z,23.63
2022-11-24T16:23:49.097Z,21.58
2022-11-24T16:26:17.147Z,21.98
2022-11-24T16:28:45.984Z,18.60
2022-11-24T16:31:16.257Z,19.23
2022-11-24T16:33:46.492Z,19.58
2022-11-24T16:36:15.476Z,22.92
2022-11-24T16:38:43.859Z,17.70
2022-11-24T16:41:12.018Z,19.40
2022-11-24T16:43:41.146Z,17.23
2022-11-24T16:46:09.112Z,16.00
2022-11-24T16:48:37.201Z,20.90
2022-11-24T16:51:12.229Z,24.33
2022-11-24T16:53:41.004Z,22.27
2022-11-24T16:56:09.994Z,24.80
2022-11-24T16:58:40.622Z,24.70
2022-11-24T17:01:11.907Z,26.83
2022-11-24T17:03:40.296Z,23.35
2022-11-24T17:06:12.498Z,22.00
2022-11-24T17:08:41.462Z,23.58
2022-11-24T17:11:12.697Z,21.05
2022-11-24T17:13:41.751Z,20.90
2022-11-24T17:16:14.333Z,19.35
2022-11-24T17:18:43.631Z,18.43
2022-11-24T17:21:20.429Z,21.08
2022-11-24T17:23:53.272Z,22.17
2022-11-24T17:26:21.881Z,17.48
2022-11-24T17:28:50.482Z,18.90
2022-11-24T17:31:26.344Z,15.90
2022-11-24T17:33:56.790Z,14.93
2022-11-24T17:36:25.849Z,21.75
2022-11-24T17:38:54.368Z,21.63
2022-11-24T17:41:23.234Z,19.98
2022-11-24T17:43:56.846Z,20.70
2022-11-24T17:46:26.978Z,16.35
2022-11-24T17:48:55.920Z,17.70
2022-11-24T17:51:26.254Z,17.27
2022-11-24T17:53:55.418Z,17.60
2022-11-24T17:56:26.283Z,15.45
2022-11-24T17:58:56.575Z,12.30
2022-11-24T18:01:26.201Z,11.55
2022-11-24T18:03:54.601Z,15.02
2022-11-24T18:06:26.050Z,15.07
2022-11-24T18:08:56.146Z,20.85
2022-11-24T18:11:30.982Z,22.05
2022-11-24T18:14:02.427Z,22.42
2022-11-24T18:16:34.974Z,18.55
2022-11-24T18:19:11.081Z,18.60
2022-11-24T18:21:44.835Z,20.20
2022-11-24T18:24:14.035Z,17.65
2022-11-24T18:26:43.345Z,26.02
2022-11-24T18:29:12.240Z,25.52
2022-11-24T18:31:40.584Z,28.90
2022-11-24T18:34:09.267Z,27.67
2022-11-24T18:36:37.603Z,27.02
2022-11-24T18:39:08.939Z,29.13
2022-11-24T18:41:37.185Z,24.35
2022-11-24T18:44:08.508Z,26.02
2022-11-24T18:46:37.768Z,27.20
2022-11-24T18:49:07.120Z,25.73
2022-11-24T18:51:36.325Z,26.63
2022-11-24T18:54:05.718Z,26.35
2022-11-24T18:56:34.013Z,27.67
2022-11-24T18:59:02.614Z,26.42
2022-11-24T19:01:31.309Z,23.58
2022-11-24T19:04:03.127Z,27.40
2022-11-24T19:06:34.600Z,28.83
2022-11-24T19:09:06.840Z,27.17
2022-11-24T19:11:37.471Z,25.15
2022-11-24T19:14:08.069Z,26.90
2022-11-24T19:16:36.468Z,40.95
2022-11-24T19:19:05.491Z,35.88
2022-11-24T19:21:37.271Z,33.15
2022-11-24T19:24:07.609Z,32.53
2022-11-24T19:26:36.286Z,33.22
2022-11-24T19:29:05.739Z,35.17
2022-11-24T19:31:34.878Z,33.65
2022-11-24T19:34:03.647Z,39.08
2022-11-24T19:36:32.924Z,40.47
2022-11-24T19:39:04.780Z,38.70
2022-11-24T19:41:33.747Z,39.03
2022-11-24T19:44:02.895Z,36.75
2022-11-24T19:46:31.066Z,38.25
2022-11-24T19:49:01.732Z,35.05
2022-11-24T19:51:35.140Z,29.42
2022-11-24T19:56:36.240Z,25.95
2022-11-24T19:59:07.378Z,25.45
2022-11-24T20:01:40.983Z,26.30
2022-11-24T20:04:12.830Z,26.70
2022-11-24T20:06:43.173Z,24.75
2022-11-24T20:11:43.965Z,25.20
2022-11-24T20:14:13.845Z,27.75
2022-11-24T20:16:42.485Z,28.73
2022-11-24T20:19:12.747Z,27.35
2022-11-24T20:21:46.424Z,26.42
2022-11-24T20:24:17.021Z,20.63
2022-11-24T20:26:49.659Z,17.98
2022-11-24T20:29:19.363Z,16.70
2022-11-24T20:31:53.762Z,21.67
2022-11-24T20:34:24.327Z,19.38
2022-11-24T20:36:55.455Z,22.42
2022-11-24T20:39:28.227Z,25.83
2022-11-24T20:41:57.383Z,28.10
2022-11-24T20:44:27.454Z,22.65
2022-11-24T20:46:59.750Z,25.38
2022-11-24T20:49:29.034Z,26.80
2022-11-24T20:51:57.708Z,18.42
2022-11-24T20:54:26.385Z,23.55
2022-11-24T20:56:54.907Z,20.23
2022-11-24T20:59:24.799Z,20.63
2022-11-24T21:01:57.292Z,20.23
2022-11-24T21:04:27.273Z,20.00
2022-11-24T21:06:56.282Z,19.20
2022-11-24T21:09:25.042Z,26.60
2022-11-24T21:11:53.337Z,27.02
2022-11-24T21:14:22.289Z,25.95
2022-11-24T21:16:50.690Z,26.20
2022-11-24T21:19:19.453Z,27.65
2022-11-24T21:21:49.025Z,32.08
2022-11-24T21:24:19.014Z,34.83
2022-11-24T21:26:48.218Z,32.25
2022-11-24T21:29:22.478Z,26.27
2022-11-24T21:31:50.551Z,24.15
2022-11-24T21:34:19.776Z,22.98
2022-11-24T21:36:47.857Z,23.75
2022-11-24T21:39:16.546Z,23.58
2022-11-24T21:41:45.126Z,19.75
2022-11-24T21:44:14.545Z,25.33
2022-11-24T21:46:48.063Z,26.55
2022-11-24T21:49:19.142Z,27.80
2022-11-24T21:51:47.845Z,31.15
2022-11-24T21:54:15.720Z,28.00
2022-11-24T21:56:43.746Z,30.13
2022-11-24T21:59:11.955Z,35.10
2022-11-24T22:01:40.553Z,29.80
2022-11-24T22:04:09.656Z,62.08
2022-11-24T22:06:38.136Z,70.55
2022-11-24T22:09:06.544Z,42.50
2022-11-24T22:11:34.469Z,22.10
2022-11-24T22:14:02.690Z,30.65
2022-11-24T22:16:30.907Z,19.80
2022-11-24T22:19:00.628Z,30.25
2022-11-24T22:21:33.763Z,18.42
2022-11-24T22:24:02.728Z,17.10
2022-11-24T22:26:31.208Z,24.58
2022-11-24T22:28:59.634Z,21.42
2022-11-24T22:31:32.931Z,23.08
2022-11-24T22:36:30.455Z,28.02
2022-11-24T22:39:03.339Z,27.80
2022-11-24T22:41:36.165Z,28.92
2022-11-24T22:44:05.571Z,29.73
2022-11-24T22:46:34.458Z,27.83
2022-11-24T22:49:02.761Z,30.63
2022-11-24T22:51:33.928Z,27.48
2022-11-24T22:54:04.162Z,32.63
2022-11-24T22:56:33.924Z,32.42
2022-11-24T22:59:03.301Z,27.92
2022-11-24T23:01:33.725Z,31.35
2022-11-24T23:04:02.624Z,32.08
2022-11-24T23:06:32.733Z,31.10
2022-11-24T23:09:02.195Z,37.03
2022-11-24T23:11:37.747Z,35.40
2022-11-24T23:14:08.956Z,43.05
2022-11-24T23:16:37.045Z,46.72
2022-11-24T23:19:05.662Z,24.98
2022-11-24T23:21:36.446Z,19.55
2022-11-24T23:24:05.488Z,15.57
2022-11-24T23:26:39.430Z,17.05
2022-11-24T23:29:07.950Z,11.85
2022-11-24T23:31:36.596Z,14.32
2022-11-24T23:34:05.772Z,14.48
2022-11-24T23:36:34.407Z,15.75
2022-11-24T23:39:08.580Z,11.73
2022-11-24T23:41:37.035Z,12.13
2022-11-24T23:44:05.506Z,10.23
2022-11-24T23:46:34.222Z,11.10
2022-11-24T23:49:02.541Z,11.00
2022-11-24T23:51:33.223Z,9.93
2022-11-24T23:54:01.543Z,8.93
2022-11-24T23:56:34.191Z,9.75
2022-11-24T23:59:03.972Z,9.95
